sensor_id;sensor_type;location;lat;lon;timestamp;P1;durP1;ratioP1;P2;durP2;ratioP2
7205;SDS011;3644;53.480;10.004;2023-11-21T00:01:54;19.83;;;8.67;;
7205;SDS011;3644;53.480;10.004;2023-11-21T00:04:19;15.73;;;7.40;;
7205;SDS011;3644;53.480;10.004;2023-11-21T00:06:46;13.83;;;7.03;;
7205;SDS011;3644;53.480;10.004;2023-11-21T00:09:12;16.47;;;8.40;;
7205;SDS011;3644;53.480;10.004;2023-11-21T00:11:40;13.93;;;7.37;;
7205;SDS011;3644;53.480;10.004;2023-11-21T00:14:06;14.57;;;8.20;;
7205;SDS011;3644;53.480;10.004;2023-11-21T00:16:33;14.23;;;7.73;;
7205;SDS011;3644;53.480;10.004;2023-11-21T00:18:59;17.00;;;8.20;;
7205;SDS011;3644;53.480;10.004;2023-11-21T00:21:24;14.97;;;8.00;;
7205;SDS011;3644;53.480;10.004;2023-11-21T00:23:50;13.60;;;7.67;;
7205;SDS011;3644;53.480;10.004;2023-11-21T00:26:15;12.70;;;7.40;;
7205;SDS011;3644;53.480;10.004;2023-11-21T00:28:41;17.30;;;9.43;;
7205;SDS011;3644;53.480;10.004;2023-11-21T00:31:06;20.67;;;9.57;;
7205;SDS011;3644;53.480;10.004;2023-11-21T00:33:32;11.00;;;8.00;;
7205;SDS011;3644;53.480;10.004;2023-11-21T00:35:57;18.70;;;9.33;;
7205;SDS011;3644;53.480;10.004;2023-11-21T00:38:23;12.97;;;8.53;;
7205;SDS011;3644;53.480;10.004;2023-11-21T00:40:49;15.77;;;9.17;;
7205;SDS011;3644;53.480;10.004;2023-11-21T00:43:14;16.13;;;9.90;;
7205;SDS011;3644;53.480;10.004;2023-11-21T00:45:40;19.13;;;9.20;;
7205;SDS011;3644;53.480;10.004;2023-11-21T00:48:05;15.67;;;7.73;;
7205;SDS011;3644;53.480;10.004;2023-11-21T00:50:33;14.67;;;8.53;;
7205;SDS011;3644;53.480;10.004;2023-11-21T00:52:58;22.37;;;10.77;;
7205;SDS011;3644;53.480;10.004;2023-11-21T00:55:24;19.60;;;10.73;;
7205;SDS011;3644;53.480;10.004;2023-11-21T00:57:50;19.20;;;11.17;;
7205;SDS011;3644;53.480;10.004;2023-11-21T01:00:15;23.50;;;11.70;;
7205;SDS011;3644;53.480;10.004;2023-11-21T01:02:44;21.40;;;11.70;;
7205;SDS011;3644;53.480;10.004;2023-11-21T01:05:10;20.00;;;10.33;;
7205;SDS011;3644;53.480;10.004;2023-11-21T01:07:35;16.60;;;10.57;;
7205;SDS011;3644;53.480;10.004;2023-11-21T01:10:02;17.57;;;10.87;;
7205;SDS011;3644;53.480;10.004;2023-11-21T01:12:30;22.73;;;10.63;;
7205;SDS011;3644;53.480;10.004;2023-11-21T01:14:56;19.13;;;11.60;;
7205;SDS011;3644;53.480;10.004;2023-11-21T01:17:25;21.83;;;10.77;;
7205;SDS011;3644;53.480;10.004;2023-11-21T01:19:50;20.00;;;11.47;;
7205;SDS011;3644;53.480;10.004;2023-11-21T01:22:16;25.37;;;12.47;;
7205;SDS011;3644;53.480;10.004;2023-11-21T01:24:42;21.90;;;11.03;;
7205;SDS011;3644;53.480;10.004;2023-11-21T01:27:08;19.33;;;11.83;;
7205;SDS011;3644;53.480;10.004;2023-11-21T01:29:33;23.53;;;11.83;;
7205;SDS011;3644;53.480;10.004;2023-11-21T01:32:00;22.77;;;13.90;;
7205;SDS011;3644;53.480;10.004;2023-11-21T01:34:27;27.37;;;12.50;;
7205;SDS011;3644;53.480;10.004;2023-11-21T01:36:53;28.53;;;13.60;;
7205;SDS011;3644;53.480;10.004;2023-11-21T01:39:18;20.90;;;12.33;;
7205;SDS011;3644;53.480;10.004;2023-11-21T01:41:48;27.20;;;13.33;;
7205;SDS011;3644;53.480;10.004;2023-11-21T01:44:14;23.70;;;11.63;;
7205;SDS011;3644;53.480;10.004;2023-11-21T01:46:41;27.63;;;13.30;;
7205;SDS011;3644;53.480;10.004;2023-11-21T01:49:07;23.13;;;13.20;;
7205;SDS011;3644;53.480;10.004;2023-11-21T01:51:38;21.70;;;12.40;;
7205;SDS011;3644;53.480;10.004;2023-11-21T01:54:08;18.30;;;11.17;;
7205;SDS011;3644;53.480;10.004;2023-11-21T01:56:34;18.83;;;11.17;;
7205;SDS011;3644;53.480;10.004;2023-11-21T01:59:00;15.80;;;9.57;;
7205;SDS011;3644;53.480;10.004;2023-11-21T02:01:26;15.03;;;9.27;;
7205;SDS011;3644;53.480;10.004;2023-11-21T02:03:51;18.30;;;11.13;;
7205;SDS011;3644;53.480;10.004;2023-11-21T02:06:17;17.10;;;8.87;;
7205;SDS011;3644;53.480;10.004;2023-11-21T02:08:43;16.83;;;9.43;;
7205;SDS011;3644;53.480;10.004;2023-11-21T02:11:09;14.97;;;8.73;;
7205;SDS011;3644;53.480;10.004;2023-11-21T02:13:37;13.90;;;7.90;;
7205;SDS011;3644;53.480;10.004;2023-11-21T02:16:04;14.43;;;7.67;;
7205;SDS011;3644;53.480;10.004;2023-11-21T02:18:30;9.10;;;6.67;;
7205;SDS011;3644;53.480;10.004;2023-11-21T02:20:56;9.67;;;7.43;;
7205;SDS011;3644;53.480;10.004;2023-11-21T02:23:22;8.43;;;6.20;;
7205;SDS011;3644;53.480;10.004;2023-11-21T02:25:48;9.03;;;6.77;;
7205;SDS011;3644;53.480;10.004;2023-11-21T02:28:13;12.30;;;6.97;;
7205;SDS011;3644;53.480;10.004;2023-11-21T02:30:41;8.90;;;6.23;;
7205;SDS011;3644;53.480;10.004;2023-11-21T02:33:07;9.57;;;5.70;;
7205;SDS011;3644;53.480;10.004;2023-11-21T02:35:33;8.03;;;6.00;;
7205;SDS011;3644;53.480;10.004;2023-11-21T02:37:59;8.00;;;6.40;;
7205;SDS011;3644;53.480;10.004;2023-11-21T02:40:25;8.00;;;5.83;;
7205;SDS011;3644;53.480;10.004;2023-11-21T02:42:51;6.73;;;5.43;;
7205;SDS011;3644;53.480;10.004;2023-11-21T02:45:17;6.57;;;5.40;;
7205;SDS011;3644;53.480;10.004;2023-11-21T02:47:45;9.23;;;6.60;;
7205;SDS011;3644;53.480;10.004;2023-11-21T02:50:11;9.03;;;6.30;;
7205;SDS011;3644;53.480;10.004;2023-11-21T02:52:37;10.27;;;6.53;;
7205;SDS011;3644;53.480;10.004;2023-11-21T02:55:03;9.40;;;6.13;;
7205;SDS011;3644;53.480;10.004;2023-11-21T02:57:28;6.83;;;4.73;;
7205;SDS011;3644;53.480;10.004;2023-11-21T02:59:54;10.83;;;6.00;;
7205;SDS011;3644;53.480;10.004;2023-11-21T03:02:20;11.53;;;6.10;;
7205;SDS011;3644;53.480;10.004;2023-11-21T03:04:45;9.83;;;5.63;;
7205;SDS011;3644;53.480;10.004;2023-11-21T03:07:13;9.23;;;6.40;;
7205;SDS011;3644;53.480;10.004;2023-11-21T03:09:38;7.93;;;5.73;;
7205;SDS011;3644;53.480;10.004;2023-11-21T03:12:04;11.63;;;5.90;;
7205;SDS011;3644;53.480;10.004;2023-11-21T03:14:30;6.27;;;5.23;;
7205;SDS011;3644;53.480;10.004;2023-11-21T03:16:56;8.37;;;6.23;;
7205;SDS011;3644;53.480;10.004;2023-11-21T03:19:22;8.27;;;6.60;;
7205;SDS011;3644;53.480;10.004;2023-11-21T03:21:48;9.50;;;6.67;;
7205;SDS011;3644;53.480;10.004;2023-11-21T03:24:13;10.03;;;6.47;;
7205;SDS011;3644;53.480;10.004;2023-11-21T03:26:43;9.70;;;7.10;;
7205;SDS011;3644;53.480;10.004;2023-11-21T03:29:10;13.63;;;7.03;;
7205;SDS011;3644;53.480;10.004;2023-11-21T03:31:35;10.43;;;6.63;;
7205;SDS011;3644;53.480;10.004;2023-11-21T03:34:01;11.20;;;7.20;;
7205;SDS011;3644;53.480;10.004;2023-11-21T03:36:26;9.27;;;6.40;;
7205;SDS011;3644;53.480;10.004;2023-11-21T03:38:52;8.50;;;6.07;;
7205;SDS011;3644;53.480;10.004;2023-11-21T03:41:18;9.10;;;6.70;;
7205;SDS011;3644;53.480;10.004;2023-11-21T03:43:43;8.83;;;6.97;;
7205;SDS011;3644;53.480;10.004;2023-11-21T03:46:09;8.50;;;6.10;;
7205;SDS011;3644;53.480;10.004;2023-11-21T03:48:35;10.10;;;7.20;;
7205;SDS011;3644;53.480;10.004;2023-11-21T03:51:00;14.67;;;7.50;;
7205;SDS011;3644;53.480;10.004;2023-11-21T03:53:26;18.00;;;7.40;;
7205;SDS011;3644;53.480;10.004;2023-11-21T03:55:51;12.17;;;6.53;;
7205;SDS011;3644;53.480;10.004;2023-11-21T03:58:17;9.20;;;7.37;;
7205;SDS011;3644;53.480;10.004;2023-11-21T04:00:42;9.80;;;6.67;;
7205;SDS011;3644;53.480;10.004;2023-11-21T04:03:08;9.63;;;6.80;;
7205;SDS011;3644;53.480;10.004;2023-11-21T04:05:33;7.87;;;6.20;;
7205;SDS011;3644;53.480;10.004;2023-11-21T04:07:59;10.10;;;6.93;;
7205;SDS011;3644;53.480;10.004;2023-11-21T04:10:24;11.17;;;6.70;;
7205;SDS011;3644;53.480;10.004;2023-11-21T04:12:50;12.40;;;7.47;;
7205;SDS011;3644;53.480;10.004;2023-11-21T04:15:15;10.53;;;7.23;;
7205;SDS011;3644;53.480;10.004;2023-11-21T04:17:42;8.90;;;6.93;;
7205;SDS011;3644;53.480;10.004;2023-11-21T04:20:08;12.47;;;7.40;;
7205;SDS011;3644;53.480;10.004;2023-11-21T04:22:38;14.37;;;5.67;;
7205;SDS011;3644;53.480;10.004;2023-11-21T04:25:09;10.40;;;6.60;;
7205;SDS011;3644;53.480;10.004;2023-11-21T04:27:41;10.83;;;7.77;;
7205;SDS011;3644;53.480;10.004;2023-11-21T04:30:10;11.00;;;7.67;;
7205;SDS011;3644;53.480;10.004;2023-11-21T04:32:37;8.30;;;6.93;;
7205;SDS011;3644;53.480;10.004;2023-11-21T04:35:04;10.57;;;7.37;;
7205;SDS011;3644;53.480;10.004;2023-11-21T04:37:29;7.43;;;6.20;;
7205;SDS011;3644;53.480;10.004;2023-11-21T04:39:55;10.97;;;7.33;;
7205;SDS011;3644;53.480;10.004;2023-11-21T04:42:20;12.90;;;6.90;;
7205;SDS011;3644;53.480;10.004;2023-11-21T04:44:46;12.43;;;7.90;;
7205;SDS011;3644;53.480;10.004;2023-11-21T04:47:12;11.90;;;7.77;;
7205;SDS011;3644;53.480;10.004;2023-11-21T04:49:37;8.37;;;6.83;;
7205;SDS011;3644;53.480;10.004;2023-11-21T04:52:04;14.10;;;7.93;;
7205;SDS011;3644;53.480;10.004;2023-11-21T04:54:30;10.97;;;7.90;;
7205;SDS011;3644;53.480;10.004;2023-11-21T04:56:56;11.63;;;7.60;;
7205;SDS011;3644;53.480;10.004;2023-11-21T04:59:21;10.20;;;6.80;;
7205;SDS011;3644;53.480;10.004;2023-11-21T05:01:49;11.50;;;8.13;;
7205;SDS011;3644;53.480;10.004;2023-11-21T05:04:15;15.50;;;9.70;;
7205;SDS011;3644;53.480;10.004;2023-11-21T05:06:41;11.67;;;8.57;;
7205;SDS011;3644;53.480;10.004;2023-11-21T05:09:06;11.80;;;8.13;;
7205;SDS011;3644;53.480;10.004;2023-11-21T05:11:36;10.27;;;7.57;;
7205;SDS011;3644;53.480;10.004;2023-11-21T05:14:02;10.17;;;7.57;;
7205;SDS011;3644;53.480;10.004;2023-11-21T05:16:29;13.33;;;8.43;;
7205;SDS011;3644;53.480;10.004;2023-11-21T05:18:54;36.73;;;9.40;;
7205;SDS011;3644;53.480;10.004;2023-11-21T05:21:25;9.60;;;7.53;;
7205;SDS011;3644;53.480;10.004;2023-11-21T05:23:51;11.70;;;7.00;;
7205;SDS011;3644;53.480;10.004;2023-11-21T05:26:16;11.13;;;7.40;;
7205;SDS011;3644;53.480;10.004;2023-11-21T05:28:42;12.43;;;7.40;;
7205;SDS011;3644;53.480;10.004;2023-11-21T05:31:07;9.33;;;7.00;;
7205;SDS011;3644;53.480;10.004;2023-11-21T05:33:33;9.90;;;7.10;;
7205;SDS011;3644;53.480;10.004;2023-11-21T05:35:58;12.50;;;7.07;;
7205;SDS011;3644;53.480;10.004;2023-11-21T05:38:24;16.40;;;8.27;;
7205;SDS011;3644;53.480;10.004;2023-11-21T05:40:49;15.83;;;7.70;;
7205;SDS011;3644;53.480;10.004;2023-11-21T05:43:15;11.57;;;6.90;;
7205;SDS011;3644;53.480;10.004;2023-11-21T05:45:40;14.10;;;7.90;;
7205;SDS011;3644;53.480;10.004;2023-11-21T05:48:06;11.27;;;7.00;;
7205;SDS011;3644;53.480;10.004;2023-11-21T05:50:31;10.40;;;7.90;;
7205;SDS011;3644;53.480;10.004;2023-11-21T05:52:57;12.70;;;8.23;;
7205;SDS011;3644;53.480;10.004;2023-11-21T05:55:25;12.60;;;7.63;;
7205;SDS011;3644;53.480;10.004;2023-11-21T05:57:51;12.97;;;8.47;;
7205;SDS011;3644;53.480;10.004;2023-11-21T06:00:17;12.60;;;8.70;;
7205;SDS011;3644;53.480;10.004;2023-11-21T06:02:46;10.73;;;7.73;;
7205;SDS011;3644;53.480;10.004;2023-11-21T06:05:15;13.07;;;7.63;;
7205;SDS011;3644;53.480;10.004;2023-11-21T06:07:42;12.90;;;7.83;;
7205;SDS011;3644;53.480;10.004;2023-11-21T06:10:08;22.03;;;7.30;;
7205;SDS011;3644;53.480;10.004;2023-11-21T06:12:36;10.17;;;7.90;;
7205;SDS011;3644;53.480;10.004;2023-11-21T06:15:05;14.90;;;8.07;;
7205;SDS011;3644;53.480;10.004;2023-11-21T06:17:33;12.30;;;7.80;;
7205;SDS011;3644;53.480;10.004;2023-11-21T06:20:03;15.80;;;8.50;;
7205;SDS011;3644;53.480;10.004;2023-11-21T06:22:34;10.63;;;7.27;;
7205;SDS011;3644;53.480;10.004;2023-11-21T06:25:00;11.97;;;7.97;;
7205;SDS011;3644;53.480;10.004;2023-11-21T06:27:27;9.70;;;8.00;;
7205;SDS011;3644;53.480;10.004;2023-11-21T06:29:53;11.07;;;7.53;;
7205;SDS011;3644;53.480;10.004;2023-11-21T06:32:18;12.03;;;8.40;;
7205;SDS011;3644;53.480;10.004;2023-11-21T06:34:45;13.55;;;8.00;;
7205;SDS011;3644;53.480;10.004;2023-11-21T06:37:10;16.90;;;9.70;;
7205;SDS011;3644;53.480;10.004;2023-11-21T06:39:37;12.90;;;7.60;;
7205;SDS011;3644;53.480;10.004;2023-11-21T06:42:03;16.13;;;8.40;;
7205;SDS011;3644;53.480;10.004;2023-11-21T06:44:29;13.83;;;9.00;;
7205;SDS011;3644;53.480;10.004;2023-11-21T06:46:58;13.97;;;9.27;;
7205;SDS011;3644;53.480;10.004;2023-11-21T06:49:24;11.57;;;8.40;;
7205;SDS011;3644;53.480;10.004;2023-11-21T06:51:50;15.13;;;7.67;;
7205;SDS011;3644;53.480;10.004;2023-11-21T06:54:16;17.70;;;9.97;;
7205;SDS011;3644;53.480;10.004;2023-11-21T06:56:41;11.20;;;7.70;;
7205;SDS011;3644;53.480;10.004;2023-11-21T06:59:07;15.70;;;8.40;;
7205;SDS011;3644;53.480;10.004;2023-11-21T07:01:33;11.30;;;8.30;;
7205;SDS011;3644;53.480;10.004;2023-11-21T07:04:03;15.43;;;7.90;;
7205;SDS011;3644;53.480;10.004;2023-11-21T07:06:30;11.20;;;8.20;;
7205;SDS011;3644;53.480;10.004;2023-11-21T07:08:55;11.40;;;8.13;;
7205;SDS011;3644;53.480;10.004;2023-11-21T07:11:21;11.03;;;7.70;;
7205;SDS011;3644;53.480;10.004;2023-11-21T07:13:47;11.47;;;8.53;;
7205;SDS011;3644;53.480;10.004;2023-11-21T07:16:13;12.33;;;7.97;;
7205;SDS011;3644;53.480;10.004;2023-11-21T07:18:40;16.60;;;8.70;;
7205;SDS011;3644;53.480;10.004;2023-11-21T07:21:05;10.10;;;7.93;;
7205;SDS011;3644;53.480;10.004;2023-11-21T07:23:31;13.70;;;9.53;;
7205;SDS011;3644;53.480;10.004;2023-11-21T07:25:56;14.33;;;8.77;;
7205;SDS011;3644;53.480;10.004;2023-11-21T07:28:22;13.67;;;8.53;;
7205;SDS011;3644;53.480;10.004;2023-11-21T07:30:49;9.00;;;7.50;;
7205;SDS011;3644;53.480;10.004;2023-11-21T07:33:14;11.30;;;8.43;;
7205;SDS011;3644;53.480;10.004;2023-11-21T07:35:41;12.37;;;8.27;;
7205;SDS011;3644;53.480;10.004;2023-11-21T07:38:06;11.67;;;8.07;;
7205;SDS011;3644;53.480;10.004;2023-11-21T07:40:32;11.20;;;7.63;;
7205;SDS011;3644;53.480;10.004;2023-11-21T07:42:57;12.83;;;7.80;;
7205;SDS011;3644;53.480;10.004;2023-11-21T07:45:24;15.53;;;9.63;;
7205;SDS011;3644;53.480;10.004;2023-11-21T07:47:52;13.57;;;8.70;;
7205;SDS011;3644;53.480;10.004;2023-11-21T07:50:18;15.67;;;9.63;;
7205;SDS011;3644;53.480;10.004;2023-11-21T07:52:45;13.77;;;8.50;;
7205;SDS011;3644;53.480;10.004;2023-11-21T07:55:11;14.50;;;7.87;;
7205;SDS011;3644;53.480;10.004;2023-11-21T07:57:36;15.87;;;8.17;;
7205;SDS011;3644;53.480;10.004;2023-11-21T08:00:03;13.70;;;8.27;;
7205;SDS011;3644;53.480;10.004;2023-11-21T08:02:31;12.00;;;8.17;;
7205;SDS011;3644;53.480;10.004;2023-11-21T08:04:57;15.33;;;9.20;;
7205;SDS011;3644;53.480;10.004;2023-11-21T08:07:22;11.00;;;7.90;;
7205;SDS011;3644;53.480;10.004;2023-11-21T08:09:48;11.53;;;8.50;;
7205;SDS011;3644;53.480;10.004;2023-11-21T08:12:15;17.90;;;7.97;;
7205;SDS011;3644;53.480;10.004;2023-11-21T08:14:40;15.03;;;6.97;;
7205;SDS011;3644;53.480;10.004;2023-11-21T08:17:06;18.03;;;8.63;;
7205;SDS011;3644;53.480;10.004;2023-11-21T08:19:31;12.10;;;8.47;;
7205;SDS011;3644;53.480;10.004;2023-11-21T08:21:57;9.63;;;7.27;;
7205;SDS011;3644;53.480;10.004;2023-11-21T08:24:24;9.03;;;7.07;;
7205;SDS011;3644;53.480;10.004;2023-11-21T08:26:50;12.03;;;7.00;;
7205;SDS011;3644;53.480;10.004;2023-11-21T08:29:17;12.47;;;7.73;;
7205;SDS011;3644;53.480;10.004;2023-11-21T08:31:43;15.93;;;7.23;;
7205;SDS011;3644;53.480;10.004;2023-11-21T08:34:11;11.00;;;8.40;;
7205;SDS011;3644;53.480;10.004;2023-11-21T08:36:41;11.33;;;7.30;;
7205;SDS011;3644;53.480;10.004;2023-11-21T08:39:10;7.00;;;6.07;;
7205;SDS011;3644;53.480;10.004;2023-11-21T08:41:36;9.63;;;5.93;;
7205;SDS011;3644;53.480;10.004;2023-11-21T08:44:02;6.53;;;5.53;;
7205;SDS011;3644;53.480;10.004;2023-11-21T08:46:31;16.10;;;6.07;;
7205;SDS011;3644;53.480;10.004;2023-11-21T08:48:58;7.50;;;5.57;;
7205;SDS011;3644;53.480;10.004;2023-11-21T08:51:25;9.33;;;5.50;;
7205;SDS011;3644;53.480;10.004;2023-11-21T08:53:51;13.30;;;5.80;;
7205;SDS011;3644;53.480;10.004;2023-11-21T08:56:17;8.37;;;5.70;;
7205;SDS011;3644;53.480;10.004;2023-11-21T08:58:43;6.73;;;5.93;;
7205;SDS011;3644;53.480;10.004;2023-11-21T09:01:09;8.87;;;5.47;;
7205;SDS011;3644;53.480;10.004;2023-11-21T09:03:34;8.47;;;5.63;;
7205;SDS011;3644;53.480;10.004;2023-11-21T09:06:00;6.60;;;5.50;;
7205;SDS011;3644;53.480;10.004;2023-11-21T09:08:25;7.40;;;5.67;;
7205;SDS011;3644;53.480;10.004;2023-11-21T09:10:53;7.20;;;5.83;;
7205;SDS011;3644;53.480;10.004;2023-11-21T09:13:18;5.70;;;5.03;;
7205;SDS011;3644;53.480;10.004;2023-11-21T09:15:44;6.10;;;5.00;;
7205;SDS011;3644;53.480;10.004;2023-11-21T09:18:12;7.93;;;3.93;;
7205;SDS011;3644;53.480;10.004;2023-11-21T09:20:38;4.90;;;4.23;;
7205;SDS011;3644;53.480;10.004;2023-11-21T09:23:04;7.23;;;4.50;;
7205;SDS011;3644;53.480;10.004;2023-11-21T09:25:29;8.30;;;6.37;;
7205;SDS011;3644;53.480;10.004;2023-11-21T09:27:55;6.93;;;4.43;;
7205;SDS011;3644;53.480;10.004;2023-11-21T09:30:22;6.90;;;4.30;;
7205;SDS011;3644;53.480;10.004;2023-11-21T09:32:49;6.17;;;4.83;;
7205;SDS011;3644;53.480;10.004;2023-11-21T09:35:15;4.97;;;4.30;;
7205;SDS011;3644;53.480;10.004;2023-11-21T09:37:42;6.73;;;3.73;;
7205;SDS011;3644;53.480;10.004;2023-11-21T09:40:11;6.40;;;4.70;;
7205;SDS011;3644;53.480;10.004;2023-11-21T09:42:48;5.93;;;4.50;;
7205;SDS011;3644;53.480;10.004;2023-11-21T09:45:21;7.23;;;5.70;;
7205;SDS011;3644;53.480;10.004;2023-11-21T09:47:52;6.10;;;4.60;;
7205;SDS011;3644;53.480;10.004;2023-11-21T09:50:20;5.53;;;4.30;;
7205;SDS011;3644;53.480;10.004;2023-11-21T09:55:50;5.70;;;3.83;;
7205;SDS011;3644;53.480;10.004;2023-11-21T09:58:17;5.23;;;4.27;;
7205;SDS011;3644;53.480;10.004;2023-11-21T10:00:48;3.73;;;3.43;;
7205;SDS011;3644;53.480;10.004;2023-11-21T10:03:17;6.70;;;4.73;;
7205;SDS011;3644;53.480;10.004;2023-11-21T10:05:43;3.90;;;3.53;;
7205;SDS011;3644;53.480;10.004;2023-11-21T10:08:11;5.23;;;3.83;;
7205;SDS011;3644;53.480;10.004;2023-11-21T10:10:38;4.33;;;3.87;;
7205;SDS011;3644;53.480;10.004;2023-11-21T10:13:11;4.10;;;3.50;;
7205;SDS011;3644;53.480;10.004;2023-11-21T10:15:41;5.90;;;3.27;;
7205;SDS011;3644;53.480;10.004;2023-11-21T10:18:13;6.23;;;4.00;;
7205;SDS011;3644;53.480;10.004;2023-11-21T10:20:40;13.23;;;4.20;;
7205;SDS011;3644;53.480;10.004;2023-11-21T10:23:05;4.83;;;3.70;;
7205;SDS011;3644;53.480;10.004;2023-11-21T10:25:32;6.80;;;4.70;;
7205;SDS011;3644;53.480;10.004;2023-11-21T10:27:58;4.67;;;3.33;;
7205;SDS011;3644;53.480;10.004;2023-11-21T10:30:33;4.20;;;3.70;;
7205;SDS011;3644;53.480;10.004;2023-11-21T10:33:02;3.83;;;3.43;;
7205;SDS011;3644;53.480;10.004;2023-11-21T10:35:47;5.60;;;4.03;;
7205;SDS011;3644;53.480;10.004;2023-11-21T10:38:16;5.50;;;4.07;;
7205;SDS011;3644;53.480;10.004;2023-11-21T10:40:43;14.30;;;4.20;;
7205;SDS011;3644;53.480;10.004;2023-11-21T10:43:11;4.40;;;3.50;;
7205;SDS011;3644;53.480;10.004;2023-11-21T10:45:38;6.37;;;4.27;;
7205;SDS011;3644;53.480;10.004;2023-11-21T10:48:10;4.67;;;4.27;;
7205;SDS011;3644;53.480;10.004;2023-11-21T10:50:40;6.50;;;3.60;;
7205;SDS011;3644;53.480;10.004;2023-11-21T10:53:06;4.40;;;3.80;;
7205;SDS011;3644;53.480;10.004;2023-11-21T10:55:32;3.60;;;3.30;;
7205;SDS011;3644;53.480;10.004;2023-11-21T10:57:59;5.63;;;4.03;;
7205;SDS011;3644;53.480;10.004;2023-11-21T11:00:27;4.07;;;3.77;;
7205;SDS011;3644;53.480;10.004;2023-11-21T11:02:53;3.50;;;3.20;;
7205;SDS011;3644;53.480;10.004;2023-11-21T11:05:21;4.50;;;4.17;;
7205;SDS011;3644;53.480;10.004;2023-11-21T11:07:50;4.03;;;3.30;;
7205;SDS011;3644;53.480;10.004;2023-11-21T11:10:24;4.43;;;3.80;;
7205;SDS011;3644;53.480;10.004;2023-11-21T11:12:52;4.03;;;3.60;;
7205;SDS011;3644;53.480;10.004;2023-11-21T11:15:19;3.80;;;3.50;;
7205;SDS011;3644;53.480;10.004;2023-11-21T11:17:45;8.07;;;4.10;;
7205;SDS011;3644;53.480;10.004;2023-11-21T11:20:11;7.90;;;3.40;;
7205;SDS011;3644;53.480;10.004;2023-11-21T11:22:50;4.77;;;3.40;;
7205;SDS011;3644;53.480;10.004;2023-11-21T11:28:27;17.60;;;3.37;;
7205;SDS011;3644;53.480;10.004;2023-11-21T11:33:57;3.83;;;2.80;;
7205;SDS011;3644;53.480;10.004;2023-11-21T11:36:43;4.90;;;3.70;;
7205;SDS011;3644;53.480;10.004;2023-11-21T11:39:27;7.23;;;4.17;;
7205;SDS011;3644;53.480;10.004;2023-11-21T11:42:14;4.80;;;3.80;;
7205;SDS011;3644;53.480;10.004;2023-11-21T11:47:18;8.47;;;4.27;;
7205;SDS011;3644;53.480;10.004;2023-11-21T11:55:05;4.00;;;3.20;;
7205;SDS011;3644;53.480;10.004;2023-11-21T11:57:32;3.53;;;2.83;;
7205;SDS011;3644;53.480;10.004;2023-11-21T12:00:16;8.03;;;3.97;;
7205;SDS011;3644;53.480;10.004;2023-11-21T12:02:48;3.63;;;3.00;;
7205;SDS011;3644;53.480;10.004;2023-11-21T12:05:15;4.90;;;3.50;;
7205;SDS011;3644;53.480;10.004;2023-11-21T12:07:52;6.13;;;3.33;;
7205;SDS011;3644;53.480;10.004;2023-11-21T12:10:26;7.63;;;3.20;;
7205;SDS011;3644;53.480;10.004;2023-11-21T12:13:09;3.30;;;3.10;;
7205;SDS011;3644;53.480;10.004;2023-11-21T12:15:36;3.60;;;2.90;;
7205;SDS011;3644;53.480;10.004;2023-11-21T12:18:03;4.93;;;2.47;;
7205;SDS011;3644;53.480;10.004;2023-11-21T12:20:29;8.03;;;3.73;;
7205;SDS011;3644;53.480;10.004;2023-11-21T12:22:59;6.43;;;3.70;;
7205;SDS011;3644;53.480;10.004;2023-11-21T12:25:25;3.70;;;3.40;;
7205;SDS011;3644;53.480;10.004;2023-11-21T12:27:59;4.40;;;3.33;;
7205;SDS011;3644;53.480;10.004;2023-11-21T12:30:26;5.23;;;3.43;;
7205;SDS011;3644;53.480;10.004;2023-11-21T12:32:55;5.30;;;3.40;;
7205;SDS011;3644;53.480;10.004;2023-11-21T12:35:24;4.70;;;2.90;;
7205;SDS011;3644;53.480;10.004;2023-11-21T12:37:51;4.90;;;3.20;;
7205;SDS011;3644;53.480;10.004;2023-11-21T12:40:18;6.60;;;3.60;;
7205;SDS011;3644;53.480;10.004;2023-11-21T12:42:45;4.10;;;3.70;;
7205;SDS011;3644;53.480;10.004;2023-11-21T12:47:42;9.30;;;3.73;;
7205;SDS011;3644;53.480;10.004;2023-11-21T12:50:09;5.00;;;3.57;;
7205;SDS011;3644;53.480;10.004;2023-11-21T12:52:45;5.33;;;3.57;;
7205;SDS011;3644;53.480;10.004;2023-11-21T12:55:16;5.33;;;3.67;;
7205;SDS011;3644;53.480;10.004;2023-11-21T12:57:43;6.57;;;3.30;;
7205;SDS011;3644;53.480;10.004;2023-11-21T13:00:10;8.03;;;4.17;;
7205;SDS011;3644;53.480;10.004;2023-11-21T13:02:41;4.47;;;3.17;;
7205;SDS011;3644;53.480;10.004;2023-11-21T13:05:07;3.90;;;3.43;;
7205;SDS011;3644;53.480;10.004;2023-11-21T13:07:43;4.43;;;3.10;;
7205;SDS011;3644;53.480;10.004;2023-11-21T13:10:12;4.50;;;3.77;;
7205;SDS011;3644;53.480;10.004;2023-11-21T13:12:42;7.20;;;4.00;;
7205;SDS011;3644;53.480;10.004;2023-11-21T13:15:14;9.70;;;4.50;;
7205;SDS011;3644;53.480;10.004;2023-11-21T13:17:43;3.77;;;3.20;;
7205;SDS011;3644;53.480;10.004;2023-11-21T13:20:12;11.03;;;3.30;;
7205;SDS011;3644;53.480;10.004;2023-11-21T13:25:14;5.63;;;3.77;;
7205;SDS011;3644;53.480;10.004;2023-11-21T13:27:43;17.63;;;4.60;;
7205;SDS011;3644;53.480;10.004;2023-11-21T13:30:10;5.13;;;3.40;;
7205;SDS011;3644;53.480;10.004;2023-11-21T13:32:40;3.33;;;3.10;;
7205;SDS011;3644;53.480;10.004;2023-11-21T13:35:10;4.60;;;3.20;;
7205;SDS011;3644;53.480;10.004;2023-11-21T13:37:46;8.97;;;3.90;;
7205;SDS011;3644;53.480;10.004;2023-11-21T13:40:13;4.07;;;3.47;;
7205;SDS011;3644;53.480;10.004;2023-11-21T13:42:44;7.27;;;3.23;;
7205;SDS011;3644;53.480;10.004;2023-11-21T13:45:09;4.63;;;3.67;;
7205;SDS011;3644;53.480;10.004;2023-11-21T13:47:37;6.20;;;3.77;;
7205;SDS011;3644;53.480;10.004;2023-11-21T13:50:03;3.83;;;3.43;;
7205;SDS011;3644;53.480;10.004;2023-11-21T13:52:39;4.07;;;3.27;;
7205;SDS011;3644;53.480;10.004;2023-11-21T13:55:04;3.80;;;3.40;;
7205;SDS011;3644;53.480;10.004;2023-11-21T13:57:31;3.80;;;3.30;;
7205;SDS011;3644;53.480;10.004;2023-11-21T13:59:57;4.47;;;3.20;;
7205;SDS011;3644;53.480;10.004;2023-11-21T14:02:24;3.83;;;3.50;;
7205;SDS011;3644;53.480;10.004;2023-11-21T14:04:57;6.40;;;4.13;;
7205;SDS011;3644;53.480;10.004;2023-11-21T14:07:25;5.13;;;3.80;;
7205;SDS011;3644;53.480;10.004;2023-11-21T14:10:00;5.33;;;3.90;;
7205;SDS011;3644;53.480;10.004;2023-11-21T14:12:26;5.07;;;3.67;;
7205;SDS011;3644;53.480;10.004;2023-11-21T14:14:53;12.00;;;3.80;;
7205;SDS011;3644;53.480;10.004;2023-11-21T14:17:19;10.53;;;4.23;;
7205;SDS011;3644;53.480;10.004;2023-11-21T14:19:47;7.23;;;4.23;;
7205;SDS011;3644;53.480;10.004;2023-11-21T14:22:14;5.27;;;3.93;;
7205;SDS011;3644;53.480;10.004;2023-11-21T14:24:39;9.60;;;3.53;;
7205;SDS011;3644;53.480;10.004;2023-11-21T14:27:11;3.87;;;3.30;;
7205;SDS011;3644;53.480;10.004;2023-11-21T14:29:37;3.70;;;3.40;;
7205;SDS011;3644;53.480;10.004;2023-11-21T14:32:04;3.33;;;3.03;;
7205;SDS011;3644;53.480;10.004;2023-11-21T14:34:31;5.13;;;3.37;;
7205;SDS011;3644;53.480;10.004;2023-11-21T14:36:57;6.00;;;3.20;;
7205;SDS011;3644;53.480;10.004;2023-11-21T14:39:23;5.23;;;3.77;;
7205;SDS011;3644;53.480;10.004;2023-11-21T14:41:51;5.17;;;3.67;;
7205;SDS011;3644;53.480;10.004;2023-11-21T14:44:24;3.20;;;2.97;;
7205;SDS011;3644;53.480;10.004;2023-11-21T14:46:52;5.60;;;3.50;;
7205;SDS011;3644;53.480;10.004;2023-11-21T14:49:20;4.77;;;3.87;;
7205;SDS011;3644;53.480;10.004;2023-11-21T14:51:46;5.90;;;3.80;;
7205;SDS011;3644;53.480;10.004;2023-11-21T14:54:26;8.50;;;4.20;;
7205;SDS011;3644;53.480;10.004;2023-11-21T14:57:09;6.83;;;3.90;;
7205;SDS011;3644;53.480;10.004;2023-11-21T14:59:45;4.77;;;3.37;;
7205;SDS011;3644;53.480;10.004;2023-11-21T15:02:16;3.33;;;3.13;;
7205;SDS011;3644;53.480;10.004;2023-11-21T15:05:01;3.93;;;3.20;;
7205;SDS011;3644;53.480;10.004;2023-11-21T15:07:27;5.13;;;3.47;;
7205;SDS011;3644;53.480;10.004;2023-11-21T15:09:52;6.80;;;3.60;;
7205;SDS011;3644;53.480;10.004;2023-11-21T15:12:18;5.70;;;3.80;;
7205;SDS011;3644;53.480;10.004;2023-11-21T15:14:47;3.20;;;2.90;;
7205;SDS011;3644;53.480;10.004;2023-11-21T15:17:17;4.93;;;3.10;;